createdAt,value
2018-02-17T00:04:01.774Z,95.57
2018-02-17T00:19:01.883Z,95.51
2018-02-17T00:34:01.742Z,95.47
2018-02-17T00:49:02.758Z,95.43
2018-02-17T01:04:01.806Z,95.45
2018-02-17T01:19:02.835Z,95.24
2018-02-17T01:34:01.698Z,95.36
2018-02-17T01:49:01.717Z,94.74
2018-02-17T01:54:01.664Z,94.74
2018-02-17T02:09:01.713Z,94.62
2018-02-17T02:19:01.806Z,94.63
2018-02-17T02:29:01.699Z,94.64
2018-02-17T02:39:01.744Z,94.90
2018-02-17T02:54:01.850Z,94.81
2018-02-17T03:04:01.789Z,94.77
2018-02-17T03:14:01.714Z,94.70
2018-02-17T03:29:01.796Z,95.15
2018-02-17T03:34:01.645Z,95.15
2018-02-17T03:49:01.720Z,94.74
2018-02-17T04:04:02.750Z,94.69
2018-02-17T04:19:01.762Z,95.01
2018-02-17T04:29:01.719Z,95.20
2018-02-17T04:44:01.720Z,95.36
2018-02-17T04:59:01.721Z,95.13
2018-02-17T05:04:06.764Z,95.13
2018-02-17T05:19:02.667Z,95.11
2018-02-17T05:34:01.762Z,95.14
2018-02-17T05:49:01.607Z,95.11
2018-02-17T06:04:01.569Z,94.72
2018-02-17T06:19:01.542Z,94.68
2018-02-17T06:29:01.494Z,94.78
2018-02-17T06:44:01.565Z,95.29
2018-02-17T06:59:01.525Z,95.16
2018-02-17T07:14:01.537Z,95.26
2018-02-17T07:29:01.539Z,95.13
2018-02-17T07:39:01.536Z,95.06
2018-02-17T07:54:01.558Z,95.04
2018-02-17T08:09:01.387Z,94.92
2018-02-17T08:19:01.529Z,94.96
2018-02-17T08:29:01.566Z,94.55
2018-02-17T08:34:01.545Z,94.55
2018-02-17T08:44:01.545Z,94.49
2018-02-17T08:54:01.536Z,94.49
2018-02-17T08:59:01.532Z,94.26
2018-02-17T09:04:01.519Z,94.26
2018-02-17T09:14:01.516Z,94.19
2018-02-17T09:19:01.577Z,94.61
2018-02-17T09:29:01.595Z,94.76
2018-02-17T09:39:01.600Z,94.63
2018-02-17T09:49:01.771Z,94.35
2018-02-17T09:59:01.711Z,93.48
2018-02-17T10:04:01.705Z,93.48
2018-02-17T10:09:01.807Z,92.86
2018-02-17T10:19:02.591Z,92.74
2018-02-17T10:24:01.636Z,92.74
2018-02-17T10:29:01.719Z,91.48
2018-02-17T10:35:01.629Z,91.48
2018-02-17T10:40:01.699Z,90.91
2018-02-17T10:45:01.896Z,90.91
2018-02-17T10:50:01.761Z,90.51
2018-02-17T10:55:01.641Z,90.51
2018-02-17T11:00:02.878Z,89.91
2018-02-17T11:05:01.729Z,89.91
2018-02-17T11:10:01.732Z,90.00
2018-02-17T11:15:01.819Z,90.00
2018-02-17T11:25:02.736Z,89.20
2018-02-17T11:30:01.870Z,88.60
2018-02-17T11:35:01.705Z,88.60
2018-02-17T11:45:01.935Z,89.05
2018-02-17T11:55:01.831Z,87.76
2018-02-17T12:00:01.857Z,87.03
2018-02-17T12:05:01.678Z,87.03
2018-02-17T12:15:02.079Z,87.46
2018-02-17T12:20:02.743Z,86.84
2018-02-17T12:30:01.860Z,86.14
2018-02-17T12:45:01.991Z,86.82
2018-02-17T13:00:02.022Z,86.57
2018-02-17T13:15:01.852Z,86.79
2018-02-17T13:30:01.851Z,85.39
2018-02-17T13:45:01.961Z,83.93
2018-02-17T14:00:01.766Z,83.26
2018-02-17T14:15:01.794Z,81.81
2018-02-17T14:30:01.828Z,82.33
2018-02-17T14:45:01.559Z,82.88
2018-02-17T15:00:01.562Z,85.42
2018-02-17T15:05:01.545Z,85.42
2018-02-17T15:15:01.555Z,86.48
2018-02-17T15:30:01.543Z,86.38
2018-02-17T15:40:01.532Z,86.61
2018-02-17T15:45:01.548Z,86.61
2018-02-17T15:56:01.505Z,86.57
2018-02-17T16:06:01.547Z,87.05
2018-02-17T16:16:01.567Z,87.50
2018-02-17T16:26:01.565Z,87.75
2018-02-17T16:31:01.622Z,88.02
2018-02-17T16:41:01.559Z,88.67
2018-02-17T16:51:01.529Z,88.97
2018-02-17T17:01:01.554Z,89.29
2018-02-17T17:06:01.573Z,89.29
2018-02-17T17:16:01.537Z,89.64
2018-02-17T17:21:02.544Z,89.92
2018-02-17T17:31:01.616Z,89.99
2018-02-17T17:41:01.395Z,90.28
2018-02-17T17:46:01.662Z,90.28
2018-02-17T17:56:02.706Z,90.70
2018-02-17T18:06:03.125Z,90.67
2018-02-17T18:16:02.867Z,91.26
2018-02-17T18:31:01.923Z,91.22
2018-02-17T18:46:01.690Z,91.37
2018-02-17T19:01:01.797Z,91.77
2018-02-17T19:16:01.778Z,91.77
2018-02-17T19:31:01.792Z,92.66
2018-02-17T19:36:01.627Z,92.66
2018-02-17T19:51:01.696Z,92.52
2018-02-17T20:01:01.766Z,92.34
2018-02-17T20:16:01.719Z,92.59
2018-02-17T20:31:01.770Z,92.73
2018-02-17T20:46:01.693Z,92.68
2018-02-17T21:01:01.965Z,92.69
2018-02-17T21:06:01.630Z,92.69
2018-02-17T21:21:01.796Z,92.63
2018-02-17T21:36:01.776Z,92.73
2018-02-17T21:51:01.750Z,92.70
2018-02-17T22:07:01.753Z,93.02
2018-02-17T22:22:01.776Z,93.21
2018-02-17T22:37:01.764Z,93.22
2018-02-17T22:52:01.861Z,93.30
2018-02-17T23:07:01.765Z,93.34
2018-02-17T23:22:01.726Z,93.30
2018-02-17T23:27:01.616Z,93.30
2018-02-17T23:42:04.921Z,93.15
2018-02-17T23:57:01.761Z,92.87
